createdAt,value
2023-05-05T00:00:58.869Z,60.58
2023-05-05T00:03:25.812Z,61.21
2023-05-05T00:05:57.402Z,62.10
2023-05-05T00:08:23.814Z,61.23
2023-05-05T00:10:52.372Z,61.13
2023-05-05T00:13:20.317Z,61.30
2023-05-05T00:15:48.828Z,61.61
2023-05-05T00:18:16.670Z,62.26
2023-05-05T00:20:47.160Z,62.20
2023-05-05T00:23:14.633Z,62.35
2023-05-05T00:25:41.258Z,62.84
2023-05-05T00:28:07.956Z,63.91
2023-05-05T00:30:34.633Z,64.19
2023-05-05T00:33:01.493Z,62.27
2023-05-05T00:35:27.909Z,62.46
2023-05-05T00:37:55.132Z,62.69
2023-05-05T00:40:21.731Z,61.90
2023-05-05T00:42:52.182Z,61.38
2023-05-05T00:45:19.921Z,61.02
2023-05-05T00:47:54.103Z,59.63
2023-05-05T00:50:26.127Z,60.04
2023-05-05T00:52:55.303Z,61.09
2023-05-05T00:55:22.000Z,61.67
2023-05-05T00:57:49.419Z,61.95
2023-05-05T01:00:16.730Z,62.58
2023-05-05T01:02:44.234Z,63.06
2023-05-05T01:05:11.596Z,63.50
2023-05-05T01:07:43.655Z,63.70
2023-05-05T01:10:30.680Z,63.61
2023-05-05T01:13:29.466Z,63.97
2023-05-05T01:16:04.323Z,63.83
2023-05-05T01:18:33.692Z,62.47
2023-05-05T01:21:18.283Z,62.28
2023-05-05T01:24:00.489Z,62.08
2023-05-05T01:26:59.096Z,62.32
2023-05-05T01:30:02.270Z,62.31
2023-05-05T01:32:34.502Z,62.69
2023-05-05T01:35:13.421Z,63.00
2023-05-05T01:37:46.366Z,62.80
2023-05-05T01:40:15.294Z,63.62
2023-05-05T01:42:44.351Z,63.85
2023-05-05T01:45:12.734Z,64.19
2023-05-05T01:47:42.535Z,64.77
2023-05-05T01:50:11.374Z,64.83
2023-05-05T01:52:39.823Z,65.65
2023-05-05T01:55:08.396Z,64.75
2023-05-05T01:57:36.764Z,65.38
2023-05-05T02:00:04.487Z,65.32
2023-05-05T02:02:32.920Z,65.37
2023-05-05T02:05:01.127Z,65.27
2023-05-05T02:07:28.166Z,65.81
2023-05-05T02:09:55.659Z,65.78
2023-05-05T02:12:23.034Z,66.18
2023-05-05T02:14:51.090Z,66.29
2023-05-05T02:17:20.142Z,66.88
2023-05-05T02:19:49.593Z,69.27
2023-05-05T02:22:16.820Z,71.07
2023-05-05T02:24:43.790Z,70.16
2023-05-05T02:27:11.635Z,70.50
2023-05-05T02:29:45.010Z,72.03
2023-05-05T02:32:20.325Z,73.47
2023-05-05T02:34:49.554Z,75.18
2023-05-05T02:37:25.484Z,75.00
2023-05-05T02:39:59.066Z,75.37
2023-05-05T02:42:32.108Z,76.51
2023-05-05T02:45:01.812Z,75.48
2023-05-05T02:47:35.233Z,76.22
2023-05-05T02:50:01.823Z,74.61
2023-05-05T02:52:28.313Z,75.71
2023-05-05T02:54:54.713Z,75.34
2023-05-05T02:57:31.411Z,76.56
2023-05-05T03:00:06.774Z,75.52
2023-05-05T03:02:46.008Z,76.29
2023-05-05T03:05:22.364Z,76.38
2023-05-05T03:07:56.123Z,76.20
2023-05-05T03:10:28.944Z,77.09
2023-05-05T03:13:00.257Z,76.41
2023-05-05T03:15:41.437Z,76.60
2023-05-05T03:18:10.547Z,76.25
2023-05-05T03:20:39.770Z,75.99
2023-05-05T03:23:06.603Z,75.88
2023-05-05T03:25:46.650Z,75.27
2023-05-05T03:28:14.185Z,75.59
2023-05-05T03:30:41.246Z,75.53
2023-05-05T03:33:11.936Z,75.47
2023-05-05T03:35:38.337Z,75.63
2023-05-05T03:38:04.707Z,76.15
2023-05-05T03:40:43.036Z,75.35
2023-05-05T03:43:10.653Z,75.95
2023-05-05T03:45:37.086Z,75.94
2023-05-05T03:48:03.652Z,75.80
2023-05-05T03:50:30.116Z,76.48
2023-05-05T03:52:56.503Z,76.20
2023-05-05T03:55:22.947Z,76.59
2023-05-05T03:57:49.272Z,76.81
2023-05-05T04:00:16.029Z,76.87
2023-05-05T04:02:43.537Z,77.59
2023-05-05T04:05:10.137Z,77.31
2023-05-05T04:07:36.496Z,77.19
2023-05-05T04:10:03.059Z,77.42
2023-05-05T04:12:29.428Z,78.03
2023-05-05T04:14:55.888Z,78.29
2023-05-05T04:17:22.296Z,77.93
2023-05-05T04:19:48.748Z,77.91
2023-05-05T04:22:15.072Z,78.00
2023-05-05T04:24:41.473Z,77.93
2023-05-05T04:27:07.828Z,78.50
2023-05-05T04:29:34.256Z,78.27
2023-05-05T04:32:01.101Z,78.14
2023-05-05T04:34:27.537Z,78.45
2023-05-05T04:36:53.904Z,78.62
2023-05-05T04:39:20.293Z,78.56
2023-05-05T04:41:46.852Z,78.44
2023-05-05T04:44:13.232Z,78.81
2023-05-05T04:46:39.880Z,78.63
2023-05-05T04:49:06.345Z,78.20
2023-05-05T04:51:32.770Z,78.56
2023-05-05T04:53:59.214Z,78.69
2023-05-05T04:56:25.716Z,78.41
2023-05-05T04:58:52.076Z,78.86
2023-05-05T05:01:18.458Z,78.33
2023-05-05T05:03:44.963Z,78.71
2023-05-05T05:06:11.356Z,78.47
2023-05-05T05:08:37.691Z,78.35
2023-05-05T05:11:04.106Z,78.46
2023-05-05T05:13:30.582Z,78.54
2023-05-05T05:15:56.974Z,78.64
2023-05-05T05:18:23.383Z,78.60
2023-05-05T05:20:49.830Z,78.81
2023-05-05T05:23:16.216Z,78.28
2023-05-05T05:25:43.376Z,78.78
2023-05-05T05:28:10.958Z,78.44
2023-05-05T05:30:37.456Z,78.34
2023-05-05T05:33:03.935Z,78.80
2023-05-05T05:35:31.424Z,77.91
2023-05-05T05:37:57.848Z,77.46
2023-05-05T05:40:24.262Z,77.72
2023-05-05T05:42:50.730Z,77.80
2023-05-05T05:45:17.181Z,77.63
2023-05-05T05:47:43.649Z,77.65
2023-05-05T05:50:10.884Z,77.62
2023-05-05T05:52:37.432Z,77.05
2023-05-05T05:55:04.159Z,77.08
2023-05-05T05:57:30.504Z,77.09
2023-05-05T05:59:59.209Z,76.69
2023-05-05T06:02:27.245Z,76.44
2023-05-05T06:04:53.732Z,76.47
2023-05-05T06:07:20.139Z,76.12
2023-05-05T06:09:46.579Z,76.13
2023-05-05T06:12:13.017Z,76.06
2023-05-05T06:14:39.356Z,76.00
2023-05-05T06:17:05.759Z,75.56
2023-05-05T06:19:32.125Z,74.05
2023-05-05T06:21:58.549Z,73.99
2023-05-05T06:24:24.948Z,73.90
2023-05-05T06:26:51.356Z,73.37
2023-05-05T06:29:17.702Z,73.58
2023-05-05T06:31:44.130Z,73.38
2023-05-05T06:34:10.878Z,72.59
2023-05-05T06:36:37.291Z,71.32
2023-05-05T06:39:03.879Z,71.22
2023-05-05T06:41:30.343Z,70.28
2023-05-05T06:43:56.755Z,69.92
2023-05-05T06:46:23.239Z,70.20
2023-05-05T06:48:49.684Z,69.76
2023-05-05T06:51:16.143Z,69.43
2023-05-05T06:53:42.643Z,69.32
2023-05-05T06:56:08.996Z,69.51
2023-05-05T06:58:35.295Z,68.65
2023-05-05T07:01:01.688Z,68.91
2023-05-05T07:03:28.356Z,68.37
2023-05-05T07:05:54.900Z,68.62
2023-05-05T07:08:21.308Z,67.60
2023-05-05T07:10:47.765Z,69.22
2023-05-05T07:13:15.583Z,68.46
2023-05-05T07:15:46.264Z,66.87
2023-05-05T07:18:15.016Z,67.72
2023-05-05T07:20:41.484Z,66.81
2023-05-05T07:23:07.915Z,66.29
2023-05-05T07:25:34.330Z,66.59
2023-05-05T07:28:00.980Z,66.28
2023-05-05T07:30:27.380Z,66.86
2023-05-05T07:32:54.824Z,66.79
2023-05-05T07:35:21.529Z,65.67
2023-05-05T07:37:47.938Z,65.91
2023-05-05T07:40:14.360Z,66.39
2023-05-05T07:42:40.954Z,65.97
2023-05-05T07:45:07.850Z,65.18
2023-05-05T07:47:34.273Z,65.29
2023-05-05T07:50:00.833Z,63.26
2023-05-05T07:52:43.675Z,63.58
2023-05-05T07:55:12.859Z,63.71
2023-05-05T07:57:39.694Z,63.02
2023-05-05T08:00:06.930Z,64.08
2023-05-05T08:02:33.526Z,63.08
2023-05-05T08:04:59.973Z,63.61
2023-05-05T08:07:26.346Z,62.81
2023-05-05T08:09:52.752Z,62.58
2023-05-05T08:12:19.541Z,61.68
2023-05-05T08:14:45.952Z,61.86
2023-05-05T08:17:12.443Z,59.85
2023-05-05T08:19:38.915Z,58.45
2023-05-05T08:22:05.267Z,60.71
2023-05-05T08:24:31.699Z,59.19
2023-05-05T08:26:58.041Z,58.78
2023-05-05T08:29:24.402Z,60.13
2023-05-05T08:31:51.075Z,58.73
2023-05-05T08:34:17.448Z,56.92
2023-05-05T08:36:43.868Z,59.51
2023-05-05T08:39:10.209Z,57.43
2023-05-05T08:41:36.575Z,57.37
2023-05-05T08:44:02.952Z,58.23
2023-05-05T08:46:30.992Z,58.64
2023-05-05T08:48:57.969Z,57.05
2023-05-05T08:51:28.497Z,56.85
2023-05-05T08:53:54.786Z,57.83
2023-05-05T08:56:21.983Z,56.68
2023-05-05T08:58:49.418Z,57.86
2023-05-05T09:01:17.121Z,58.05
2023-05-05T09:03:45.038Z,56.96
2023-05-05T09:06:11.715Z,57.26
2023-05-05T09:08:39.084Z,57.69
2023-05-05T09:11:06.049Z,58.11
2023-05-05T09:13:32.665Z,57.75
2023-05-05T09:15:59.591Z,57.35
2023-05-05T09:18:26.697Z,57.39
2023-05-05T09:20:53.198Z,57.53
2023-05-05T09:23:20.627Z,58.10
2023-05-05T09:26:02.595Z,57.18
2023-05-05T09:28:29.298Z,58.18
2023-05-05T09:30:55.870Z,57.11
2023-05-05T09:33:31.551Z,57.23
2023-05-05T09:35:58.435Z,57.07
2023-05-05T09:38:25.085Z,57.61
2023-05-05T09:40:54.348Z,58.38
2023-05-05T09:43:23.439Z,59.08
2023-05-05T09:45:50.705Z,60.49
2023-05-05T09:48:30.812Z,60.09
2023-05-05T09:50:58.488Z,60.48
2023-05-05T09:53:26.417Z,61.19
2023-05-05T09:56:01.539Z,60.44
2023-05-05T09:58:30.126Z,59.56
2023-05-05T10:00:58.222Z,59.91
2023-05-05T10:03:25.977Z,60.53
2023-05-05T10:05:57.090Z,60.13
2023-05-05T10:08:28.270Z,60.12
2023-05-05T10:11:00.538Z,60.11
2023-05-05T10:13:27.830Z,60.47
2023-05-05T10:15:56.241Z,62.45
2023-05-05T10:18:27.600Z,70.09
2023-05-05T10:21:02.100Z,76.27
2023-05-05T10:23:53.839Z,87.36
2023-05-05T10:26:23.024Z,87.08
2023-05-05T10:28:57.139Z,90.45
2023-05-05T10:31:41.712Z,91.65
2023-05-05T10:34:18.082Z,91.92
2023-05-05T10:36:45.010Z,93.15
2023-05-05T10:39:11.836Z,93.56
2023-05-05T10:41:38.520Z,94.10
2023-05-05T10:44:06.611Z,94.38
2023-05-05T10:46:33.204Z,93.71
2023-05-05T10:49:17.270Z,93.93
2023-05-05T10:51:49.502Z,94.89
2023-05-05T10:54:38.181Z,95.48
2023-05-05T10:57:09.671Z,95.57
2023-05-05T10:59:39.104Z,95.43
2023-05-05T11:02:28.023Z,95.92
2023-05-05T11:05:23.169Z,96.19
2023-05-05T11:07:51.534Z,96.23
2023-05-05T11:10:23.556Z,96.41
2023-05-05T11:12:57.693Z,96.75
2023-05-05T11:15:24.019Z,96.60
2023-05-05T11:17:50.751Z,96.60
2023-05-05T11:20:17.342Z,96.77
2023-05-05T11:23:02.325Z,96.78
2023-05-05T11:25:34.850Z,96.93
2023-05-05T11:28:10.554Z,97.01
2023-05-05T11:30:58.377Z,97.18
2023-05-05T11:33:37.585Z,97.31
2023-05-05T11:36:06.940Z,97.19
2023-05-05T11:39:08.272Z,97.30
2023-05-05T11:41:56.594Z,97.13
2023-05-05T11:44:31.357Z,97.09
2023-05-05T11:46:57.615Z,97.21
2023-05-05T11:49:27.067Z,97.21
2023-05-05T11:51:57.140Z,97.14
2023-05-05T11:54:23.655Z,97.23
2023-05-05T11:56:51.194Z,97.36
2023-05-05T11:59:17.526Z,97.32
2023-05-05T12:01:44.053Z,97.54
2023-05-05T12:04:20.511Z,97.71
2023-05-05T12:06:47.138Z,97.42
2023-05-05T12:09:16.996Z,97.64
2023-05-05T12:11:53.858Z,97.53
2023-05-05T12:14:20.890Z,97.64
2023-05-05T12:17:08.547Z,97.59
2023-05-05T12:19:36.162Z,97.67
2023-05-05T12:22:04.469Z,97.76
2023-05-05T12:24:31.647Z,97.62
2023-05-05T12:27:08.355Z,97.50
2023-05-05T12:29:34.782Z,97.56
2023-05-05T12:32:01.409Z,97.50
2023-05-05T12:34:27.960Z,97.62
2023-05-05T12:36:54.557Z,97.65
2023-05-05T12:39:21.601Z,97.71
2023-05-05T12:41:47.996Z,97.78
2023-05-05T12:44:14.360Z,97.81
2023-05-05T12:46:48.123Z,97.78
2023-05-05T12:49:15.025Z,97.65
2023-05-05T12:51:53.952Z,97.63
2023-05-05T12:54:20.383Z,97.50
2023-05-05T12:56:47.861Z,97.69
2023-05-05T12:59:23.446Z,97.78
2023-05-05T13:01:54.381Z,97.58
2023-05-05T13:04:22.959Z,97.59
2023-05-05T13:06:53.053Z,97.54
2023-05-05T13:09:30.327Z,97.79
2023-05-05T13:11:56.802Z,97.75
2023-05-05T13:14:23.562Z,97.47
2023-05-05T13:16:50.013Z,97.70
2023-05-05T13:19:16.593Z,97.47
2023-05-05T13:21:43.024Z,97.49
2023-05-05T13:24:23.411Z,97.53
2023-05-05T13:26:55.733Z,97.84
2023-05-05T13:29:23.604Z,97.86
2023-05-05T13:31:52.644Z,97.15
2023-05-05T13:34:19.033Z,97.44
2023-05-05T13:36:45.836Z,97.58
2023-05-05T13:39:12.577Z,97.97
2023-05-05T13:41:39.027Z,97.72
2023-05-05T13:44:05.400Z,98.06
2023-05-05T13:46:31.816Z,97.67
2023-05-05T13:48:58.302Z,97.79
2023-05-05T13:51:24.790Z,97.58
2023-05-05T13:53:51.456Z,97.54
2023-05-05T13:56:19.048Z,97.47
2023-05-05T13:58:46.269Z,97.85
2023-05-05T14:01:12.750Z,97.67
2023-05-05T14:03:39.664Z,97.44
2023-05-05T14:06:07.437Z,97.49
2023-05-05T14:08:34.162Z,97.50
2023-05-05T14:11:00.555Z,97.41
2023-05-05T14:13:26.928Z,97.24
2023-05-05T14:15:53.801Z,97.59
2023-05-05T14:18:20.721Z,97.23
2023-05-05T14:20:47.141Z,96.61
2023-05-05T14:23:13.467Z,97.17
2023-05-05T14:25:39.888Z,97.53
2023-05-05T14:28:07.077Z,97.47
2023-05-05T14:30:33.422Z,97.28
2023-05-05T14:33:01.093Z,97.60
2023-05-05T14:35:27.565Z,97.59
2023-05-05T14:37:53.905Z,97.49
2023-05-05T14:40:20.315Z,97.87
2023-05-05T14:42:46.711Z,98.55
2023-05-05T14:45:13.116Z,97.52
2023-05-05T14:47:39.559Z,97.13
2023-05-05T14:50:09.526Z,97.15
2023-05-05T14:52:40.356Z,95.84
2023-05-05T14:55:07.604Z,94.56
2023-05-05T14:57:34.425Z,93.95
2023-05-05T15:00:00.771Z,94.05
2023-05-05T15:02:27.208Z,93.50
2023-05-05T15:04:53.630Z,92.05
2023-05-05T15:07:20.472Z,92.25
2023-05-05T15:09:46.966Z,92.88
2023-05-05T15:12:13.417Z,91.84
2023-05-05T15:14:39.937Z,94.36
2023-05-05T15:17:06.531Z,94.27
2023-05-05T15:19:32.914Z,94.05
2023-05-05T15:21:59.404Z,91.89
2023-05-05T15:24:26.189Z,94.43
2023-05-05T15:26:52.564Z,94.48
2023-05-05T15:29:18.982Z,91.91
2023-05-05T15:31:45.449Z,94.04
2023-05-05T15:34:11.887Z,94.20
2023-05-05T15:36:38.304Z,93.27
2023-05-05T15:39:04.752Z,92.99
2023-05-05T15:41:33.946Z,93.57
2023-05-05T15:44:00.783Z,91.40
2023-05-05T15:46:27.233Z,92.41
2023-05-05T15:48:53.614Z,91.42
2023-05-05T15:51:20.092Z,88.40
2023-05-05T15:53:47.149Z,92.21
2023-05-05T15:56:13.618Z,92.94
2023-05-05T15:58:40.019Z,92.27
2023-05-05T16:01:06.528Z,92.83
2023-05-05T16:03:33.042Z,92.30
2023-05-05T16:05:59.583Z,91.45
2023-05-05T16:08:25.984Z,91.99
2023-05-05T16:10:52.625Z,90.95
2023-05-05T16:13:19.306Z,93.54
2023-05-05T16:15:46.282Z,89.96
2023-05-05T16:18:12.657Z,88.82
2023-05-05T16:20:39.124Z,91.96
2023-05-05T16:23:05.606Z,92.62
2023-05-05T16:25:32.042Z,92.55
2023-05-05T16:28:00.167Z,91.80
2023-05-05T16:30:26.831Z,89.55
2023-05-05T16:32:54.361Z,90.30
2023-05-05T16:35:22.752Z,89.40
2023-05-05T16:37:49.137Z,88.87
2023-05-05T16:40:15.845Z,89.60
2023-05-05T16:42:44.358Z,89.56
2023-05-05T16:45:11.564Z,90.05
2023-05-05T16:47:38.193Z,90.41
2023-05-05T16:50:05.344Z,89.08
2023-05-05T16:52:31.741Z,88.43
2023-05-05T16:54:58.147Z,89.57
2023-05-05T16:57:24.605Z,88.07
2023-05-05T16:59:50.996Z,85.86
2023-05-05T17:02:17.412Z,87.65
2023-05-05T17:04:43.949Z,88.52
2023-05-05T17:07:13.170Z,87.84
2023-05-05T17:09:39.528Z,88.96
2023-05-05T17:12:06.269Z,89.29
2023-05-05T17:14:33.549Z,88.93
2023-05-05T17:16:59.980Z,87.21
2023-05-05T17:19:26.768Z,86.68
2023-05-05T17:21:54.190Z,88.24
2023-05-05T17:24:20.900Z,86.86
2023-05-05T17:26:47.570Z,86.61
2023-05-05T17:29:15.177Z,88.57
2023-05-05T17:31:41.967Z,87.57
2023-05-05T17:34:08.706Z,88.76
2023-05-05T17:36:37.969Z,88.30
2023-05-05T17:39:05.852Z,87.10
2023-05-05T17:41:32.219Z,88.76
2023-05-05T17:43:59.434Z,88.78
2023-05-05T17:46:26.044Z,90.20
2023-05-05T17:48:53.074Z,88.63
2023-05-05T17:51:19.863Z,90.19
2023-05-05T17:53:46.281Z,89.36
2023-05-05T17:56:12.633Z,88.32
2023-05-05T17:58:39.692Z,88.18
2023-05-05T18:01:06.234Z,88.83
2023-05-05T18:03:32.875Z,88.94
2023-05-05T18:05:59.380Z,90.62
2023-05-05T18:08:25.709Z,92.23
2023-05-05T18:10:53.519Z,90.20
2023-05-05T18:13:21.363Z,90.87
2023-05-05T18:15:47.947Z,89.87
2023-05-05T18:18:14.374Z,90.42
2023-05-05T18:20:40.926Z,91.69
2023-05-05T18:23:07.263Z,89.27
2023-05-05T18:25:33.679Z,90.21
2023-05-05T18:28:00.132Z,91.34
2023-05-05T18:30:26.560Z,92.14
2023-05-05T18:32:53.010Z,90.13
2023-05-05T18:35:19.511Z,92.22
2023-05-05T18:37:45.858Z,93.16
2023-05-05T18:40:12.590Z,93.69
2023-05-05T18:42:39.070Z,93.98
2023-05-05T18:45:06.512Z,94.36
2023-05-05T18:47:33.757Z,94.57
2023-05-05T18:50:00.192Z,94.95
2023-05-05T18:52:27.379Z,95.34
2023-05-05T18:54:53.799Z,95.39
2023-05-05T18:57:20.178Z,95.83
2023-05-05T18:59:46.654Z,96.02
2023-05-05T19:02:13.114Z,96.30
2023-05-05T19:04:41.236Z,96.23
2023-05-05T19:07:07.718Z,96.05
2023-05-05T19:09:34.176Z,96.45
2023-05-05T19:12:02.279Z,96.43
2023-05-05T19:14:29.079Z,96.33
2023-05-05T19:16:56.044Z,96.08
2023-05-05T19:19:22.636Z,96.46
2023-05-05T19:21:48.993Z,96.70
2023-05-05T19:24:15.351Z,96.93
2023-05-05T19:26:42.003Z,96.20
2023-05-05T19:29:08.351Z,95.84
2023-05-05T19:31:34.768Z,96.01
2023-05-05T19:34:03.402Z,95.82
2023-05-05T19:36:34.106Z,96.04
2023-05-05T19:39:01.880Z,96.22
2023-05-05T19:41:29.536Z,96.46
2023-05-05T19:43:56.008Z,96.63
2023-05-05T19:46:26.286Z,96.78
2023-05-05T19:48:52.725Z,96.78
2023-05-05T19:51:19.143Z,96.99
2023-05-05T19:53:45.775Z,96.99
2023-05-05T19:56:12.123Z,97.13
2023-05-05T19:58:59.179Z,96.69
2023-05-05T20:01:26.248Z,97.15
2023-05-05T20:03:54.311Z,96.78
2023-05-05T20:06:21.550Z,97.04
2023-05-05T20:08:47.982Z,97.22
2023-05-05T20:11:16.055Z,97.13
2023-05-05T20:13:43.047Z,97.00
2023-05-05T20:16:09.821Z,97.05
2023-05-05T20:18:36.251Z,97.28
2023-05-05T20:21:02.840Z,97.01
2023-05-05T20:23:29.374Z,97.45
2023-05-05T20:25:56.664Z,97.26
2023-05-05T20:28:23.243Z,97.32
2023-05-05T20:30:49.645Z,97.60
2023-05-05T20:33:16.097Z,97.13
2023-05-05T20:35:42.429Z,97.36
2023-05-05T20:38:09.671Z,97.04
2023-05-05T20:40:36.827Z,97.34
2023-05-05T20:43:03.274Z,97.42
2023-05-05T20:45:31.700Z,97.25
2023-05-05T20:47:58.658Z,97.31
2023-05-05T20:50:25.229Z,97.20
2023-05-05T20:52:51.606Z,97.33
2023-05-05T20:55:18.153Z,97.23
2023-05-05T20:57:44.556Z,97.07
2023-05-05T21:00:11.341Z,97.27
2023-05-05T21:02:38.027Z,96.97
2023-05-05T21:05:05.147Z,96.99
2023-05-05T21:07:35.735Z,97.37
2023-05-05T21:10:04.037Z,97.04
2023-05-05T21:12:31.189Z,97.53
2023-05-05T21:14:58.893Z,97.31
2023-05-05T21:17:26.694Z,97.17
2023-05-05T21:19:53.796Z,97.20
2023-05-05T21:22:23.725Z,97.17
2023-05-05T21:24:50.185Z,97.47
2023-05-05T21:27:16.734Z,97.18
2023-05-05T21:29:43.174Z,97.11
2023-05-05T21:32:11.451Z,96.91
2023-05-05T21:34:39.033Z,97.22
2023-05-05T21:37:06.462Z,97.04
2023-05-05T21:39:33.236Z,96.99
2023-05-05T21:42:01.026Z,97.07
2023-05-05T21:44:28.103Z,96.90
2023-05-05T21:46:55.584Z,97.16
2023-05-05T21:49:22.066Z,97.74
2023-05-05T21:51:48.481Z,97.11
2023-05-05T21:54:14.915Z,96.71
2023-05-05T21:56:41.326Z,96.51
2023-05-05T21:59:07.714Z,96.48
2023-05-05T22:01:34.084Z,97.04
2023-05-05T22:04:00.993Z,96.46
2023-05-05T22:06:27.641Z,97.09
2023-05-05T22:08:54.061Z,97.05
2023-05-05T22:11:20.467Z,96.64
2023-05-05T22:13:46.869Z,96.77
2023-05-05T22:16:16.387Z,96.68
2023-05-05T22:18:43.295Z,96.44
2023-05-05T22:21:09.741Z,96.04
2023-05-05T22:23:37.138Z,96.43
2023-05-05T22:26:04.769Z,96.14
2023-05-05T22:28:31.217Z,96.06
2023-05-05T22:30:57.622Z,96.53
2023-05-05T22:33:24.436Z,96.47
2023-05-05T22:35:52.029Z,96.19
2023-05-05T22:38:18.507Z,96.55
2023-05-05T22:40:45.380Z,96.24
2023-05-05T22:43:11.844Z,96.78
2023-05-05T22:45:38.301Z,96.45
2023-05-05T22:48:05.069Z,96.38
2023-05-05T22:50:31.506Z,96.68
2023-05-05T22:52:57.910Z,96.26
2023-05-05T22:55:24.856Z,96.11
2023-05-05T22:57:52.543Z,95.79
2023-05-05T23:00:19.462Z,96.27
2023-05-05T23:02:45.876Z,96.64
2023-05-05T23:05:12.743Z,96.43
2023-05-05T23:07:39.360Z,96.12
2023-05-05T23:10:06.312Z,96.37
2023-05-05T23:12:32.817Z,96.08
2023-05-05T23:14:59.234Z,95.94
2023-05-05T23:17:25.773Z,96.17
2023-05-05T23:19:52.187Z,95.68
2023-05-05T23:22:18.519Z,95.60
2023-05-05T23:24:44.866Z,95.71
2023-05-05T23:27:12.420Z,96.05
2023-05-05T23:29:38.824Z,96.36
2023-05-05T23:32:05.721Z,96.10
2023-05-05T23:34:32.189Z,95.86
2023-05-05T23:36:58.601Z,95.71
2023-05-05T23:39:25.062Z,95.84
2023-05-05T23:41:51.438Z,95.66
2023-05-05T23:44:17.821Z,95.57
2023-05-05T23:46:44.235Z,95.03
2023-05-05T23:49:10.617Z,95.36
2023-05-05T23:51:37.008Z,95.58
2023-05-05T23:54:03.456Z,95.54
2023-05-05T23:56:29.786Z,95.00
2023-05-05T23:58:56.234Z,95.47
